Time;durP1;ratioP1;P1;durP2;ratioP2;P2;SDS_P1;SDS_P2;PMS_P1;PMS_P2;Temp;Humidity;BMP_temperature;BMP_pressure;BME280_temperature;BME280_humidity;BME280_pressure;Samples;Min_cycle;Max_cycle;Signal;HPM_P1;HPM_P2
2021/01/02 00:01:18;;;;;;;17.73;13.75;;;1.90;99.70;;;;;;5079373;28;20579;-81
2021/01/02 00:04:20;;;;;;;16.83;12.98;;;1.90;99.60;;;;;;5073773;28;20230;-81
2021/01/02 00:07:11;;;;;;;16.60;12.80;;;1.90;99.80;;;;;;5075645;28;20241;-82
2021/01/02 00:09:43;;;;;;;21.27;14.25;;;2.00;99.70;;;;;;5072177;28;20199;-81
2021/01/02 00:12:33;;;;;;;18.70;14.50;;;2.10;99.50;;;;;;5078688;28;20199;-82
2021/01/02 00:15:06;;;;;;;29.50;15.15;;;2.10;99.60;;;;;;5077277;28;20199;-81
2021/01/02 00:18:08;;;;;;;17.25;14.02;;;2.20;99.60;;;;;;5122663;27;20198;-80
2021/01/02 00:21:01;;;;;;;20.60;14.65;;;2.20;99.90;;;;;;5069001;28;20265;-81
2021/01/02 00:23:50;;;;;;;18.13;13.98;;;2.20;99.40;;;;;;5083577;28;20187;-81
2021/01/02 00:26:27;;;;;;;18.23;12.73;;;1.80;99.50;;;;;;5076709;28;20282;-81
2021/01/02 00:28:56;;;;;;;19.98;15.02;;;2.00;99.90;;;;;;5072493;28;20191;-81
2021/01/02 00:32:01;;;;;;;21.65;15.07;;;2.00;99.90;;;;;;5089657;28;20210;-81
2021/01/02 00:35:02;;;;;;;19.40;13.77;;;1.80;99.90;;;;;;5092712;28;20194;-81
2021/01/02 00:37:35;;;;;;;19.20;13.70;;;2.10;99.90;;;;;;5094618;28;20691;-81
2021/01/02 00:40:10;;;;;;;20.05;14.55;;;2.10;99.90;;;;;;5085168;28;20199;-81
2021/01/02 00:42:38;;;;;;;19.08;13.60;;;2.10;99.90;;;;;;5083575;28;20234;-81
2021/01/02 00:45:07;;;;;;;21.33;14.55;;;2.30;99.90;;;;;;5081256;28;20190;-81
2021/01/02 00:47:35;;;;;;;20.27;14.63;;;2.40;99.90;;;;;;5093878;28;20250;-82
2021/01/02 00:50:03;;;;;;;18.92;14.10;;;2.30;99.90;;;;;;5082694;28;20669;-80
2021/01/02 00:53:01;;;;;;;21.00;13.52;;;2.10;99.90;;;;;;5112638;28;20229;-81
2021/01/02 00:56:05;;;;;;;16.52;11.88;;;2.40;99.90;;;;;;5094894;28;20195;-81
2021/01/02 00:59:05;;;;;;;20.23;13.57;;;2.30;99.70;;;;;;5073847;28;20231;-81
2021/01/02 01:01:37;;;;;;;16.98;12.45;;;2.40;99.80;;;;;;5074842;28;20231;-81
2021/01/02 01:04:27;;;;;;;19.80;13.55;;;2.20;99.70;;;;;;5080285;28;20199;-81
2021/01/02 01:06:56;;;;;;;24.65;14.98;;;2.30;99.90;;;;;;5072631;28;20681;-81
2021/01/02 01:09:24;;;;;;;16.95;12.40;;;2.60;99.90;;;;;;5074822;28;20195;-82
2021/01/02 01:11:54;;;;;;;19.58;13.50;;;2.80;99.70;;;;;;5091477;28;20191;-82
2021/01/02 01:14:21;;;;;;;21.98;13.95;;;2.80;99.20;;;;;;5090853;28;20194;-82
2021/01/02 01:16:51;;;;;;;20.10;13.07;;;2.80;98.80;;;;;;5074155;28;20196;-81
2021/01/02 01:19:20;;;;;;;20.40;13.45;;;2.80;98.70;;;;;;5073548;28;20207;-81
2021/01/02 01:21:51;;;;;;;21.25;14.80;;;2.90;98.80;;;;;;5089686;28;20209;-81
2021/01/02 01:24:24;;;;;;;18.17;13.77;;;2.90;98.60;;;;;;5085103;28;20187;-82
2021/01/02 01:27:15;;;;;;;18.10;13.75;;;2.90;98.60;;;;;;5074268;28;20207;-82
2021/01/02 01:29:57;;;;;;;15.35;12.23;;;2.80;98.80;;;;;;5081170;28;20241;-82
2021/01/02 01:32:25;;;;;;;18.73;14.48;;;2.80;98.80;;;;;;5074180;28;20210;-82
2021/01/02 01:34:56;;;;;;;17.83;13.85;;;2.90;98.80;;;;;;5074693;28;20195;-81
2021/01/02 01:37:28;;;;;;;21.63;14.60;;;3.00;98.70;;;;;;5073148;28;20559;-82
2021/01/02 01:39:54;;;;;;;19.23;14.90;;;3.00;98.40;;;;;;5073911;28;20196;-82
2021/01/02 01:42:38;;;;;;;20.70;13.75;;;3.00;98.60;;;;;;5074290;28;20203;-82
2021/01/02 01:45:26;;;;;;;17.42;13.35;;;2.90;98.40;;;;;;5078947;28;20603;-82
2021/01/02 01:48:05;;;;;;;18.00;14.27;;;2.80;98.40;;;;;;5075081;28;20210;-82
2021/01/02 01:50:46;;;;;;;15.93;12.63;;;2.90;98.60;;;;;;5079581;28;20234;-82
2021/01/02 01:53:49;;;;;;;20.17;14.73;;;3.20;98.90;;;;;;5074254;28;20202;-82
2021/01/02 01:56:28;;;;;;;16.42;13.13;;;3.10;98.50;;;;;;5087789;28;20205;-82
2021/01/02 01:59:21;;;;;;;21.45;14.85;;;3.10;98.30;;;;;;5072286;28;20287;-81
2021/01/02 02:01:50;;;;;;;17.60;13.60;;;3.10;98.10;;;;;;5091290;28;20234;-82
2021/01/02 02:05:00;;;;;;;19.17;14.30;;;3.00;97.90;;;;;;5089783;28;20590;-82
2021/01/02 02:07:45;;;;;;;16.67;13.23;;;3.10;97.90;;;;;;5082386;28;20615;-82
2021/01/02 02:10:16;;;;;;;22.48;15.02;;;3.10;98.00;;;;;;5087214;28;20204;-82
2021/01/02 02:12:54;;;;;;;23.05;15.63;;;3.10;98.00;;;;;;5092243;28;20621;-82
2021/01/02 02:15:24;;;;;;;21.42;13.73;;;3.10;98.10;;;;;;5084341;28;20190;-82
2021/01/02 02:17:54;;;;;;;21.20;14.15;;;3.10;98.10;;;;;;5091845;28;20305;-81
2021/01/02 02:20:29;;;;;;;17.73;13.57;;;3.10;98.30;;;;;;5089696;28;20192;-82
2021/01/02 02:23:05;;;;;;;19.30;14.05;;;3.10;98.10;;;;;;5072615;28;20206;-83
2021/01/02 02:25:58;;;;;;;23.05;15.07;;;3.20;98.00;;;;;;5076568;28;20663;-81
2021/01/02 02:29:02;;;;;;;23.85;14.65;;;3.20;97.90;;;;;;5091743;28;20199;-81
2021/01/02 02:31:30;;;;;;;17.92;13.55;;;3.30;98.00;;;;;;5089347;28;20206;-82
2021/01/02 02:33:59;;;;;;;21.75;14.95;;;3.20;97.80;;;;;;5087654;28;20202;-82
2021/01/02 02:36:30;;;;;;;19.27;14.65;;;3.20;98.00;;;;;;5088349;28;20293;-81
2021/01/02 02:38:59;;;;;;;21.20;15.73;;;3.10;98.30;;;;;;5082761;28;20228;-82
2021/01/02 02:41:30;;;;;;;19.42;13.98;;;3.10;98.30;;;;;;5089851;28;20194;-81
2021/01/02 02:44:01;;;;;;;21.90;15.35;;;3.10;98.30;;;;;;5092269;28;20186;-82
2021/01/02 02:46:29;;;;;;;23.63;14.50;;;3.20;98.30;;;;;;5079241;28;20206;-82
2021/01/02 02:48:59;;;;;;;18.38;14.13;;;3.10;98.10;;;;;;5085884;28;20248;-82
2021/01/02 02:51:32;;;;;;;19.73;13.98;;;3.10;98.20;;;;;;5081183;28;20671;-82
2021/01/02 02:53:59;;;;;;;16.23;12.85;;;3.00;98.30;;;;;;5086394;28;20196;-82
2021/01/02 02:56:25;;;;;;;17.60;13.48;;;2.80;98.20;;;;;;5084901;28;20202;-81
2021/01/02 02:58:52;;;;;;;18.45;13.73;;;2.60;98.70;;;;;;5090811;28;20683;-81
2021/01/02 03:01:19;;;;;;;19.27;13.68;;;2.50;99.50;;;;;;5086544;28;20245;-82
2021/01/02 03:03:45;;;;;;;19.73;14.82;;;2.50;99.50;;;;;;5082144;28;20203;-82
2021/01/02 03:06:12;;;;;;;22.45;14.05;;;2.40;99.60;;;;;;5081476;28;20268;-83
2021/01/02 03:08:41;;;;;;;21.40;14.32;;;2.40;99.90;;;;;;5072409;28;20191;-82
2021/01/02 03:11:08;;;;;;;18.92;14.30;;;2.50;99.90;;;;;;5071891;28;20202;-82
2021/01/02 03:13:41;;;;;;;21.73;15.13;;;2.80;99.90;;;;;;5075796;28;20201;-82
2021/01/02 03:16:07;;;;;;;18.80;14.45;;;3.00;99.60;;;;;;5076216;28;20206;-82
2021/01/02 03:18:34;;;;;;;18.30;14.70;;;2.90;99.20;;;;;;5088415;28;20194;-82
2021/01/02 03:21:00;;;;;;;23.65;15.80;;;2.90;99.00;;;;;;5085373;28;20929;-82
2021/01/02 03:23:27;;;;;;;19.42;16.17;;;3.00;99.00;;;;;;5084458;28;20199;-82
2021/01/02 03:26:02;;;;;;;20.25;15.50;;;2.90;98.80;;;;;;5086508;28;20188;-81
2021/01/02 03:28:29;;;;;;;20.17;14.88;;;3.00;98.90;;;;;;5072036;28;20195;-81
2021/01/02 03:30:55;;;;;;;21.20;15.40;;;3.00;98.70;;;;;;5083488;28;20202;-82
2021/01/02 03:33:22;;;;;;;18.60;15.15;;;3.00;98.70;;;;;;5092736;28;20194;-82
2021/01/02 03:35:49;;;;;;;19.48;15.43;;;3.00;98.60;;;;;;5081485;28;20259;-82
2021/01/02 03:38:15;;;;;;;21.80;15.73;;;3.00;98.70;;;;;;5072346;28;20203;-82
2021/01/02 03:40:41;;;;;;;26.83;18.13;;;3.10;98.70;;;;;;5083301;28;20199;-82
2021/01/02 03:43:09;;;;;;;21.40;16.23;;;2.90;98.70;;;;;;5073198;28;20199;-81
2021/01/02 03:45:35;;;;;;;21.10;16.20;;;2.90;99.00;;;;;;5086569;28;20199;-82
2021/01/02 03:48:01;;;;;;;21.00;16.20;;;2.80;99.10;;;;;;5080734;28;20231;-82
2021/01/02 03:50:28;;;;;;;22.17;16.55;;;2.80;99.20;;;;;;5112910;28;20225;-82
2021/01/02 03:52:54;;;;;;;25.92;16.65;;;2.70;99.30;;;;;;5103207;28;20283;-82
2021/01/02 03:55:21;;;;;;;18.92;15.82;;;2.70;99.40;;;;;;5091832;28;20238;-82
2021/01/02 03:57:47;;;;;;;22.08;17.27;;;2.70;99.60;;;;;;5091475;28;20248;-82
2021/01/02 04:00:16;;;;;;;20.88;16.80;;;2.50;99.20;;;;;;5084369;28;20211;-82
2021/01/02 04:02:42;;;;;;;27.17;16.58;;;2.40;99.90;;;;;;5071878;28;20203;-82
2021/01/02 04:05:11;;;;;;;24.08;16.75;;;2.50;99.90;;;;;;5091865;28;20205;-82
2021/01/02 04:07:37;;;;;;;28.45;17.00;;;2.60;99.90;;;;;;5082132;28;20218;-82
2021/01/02 04:10:05;;;;;;;25.83;16.75;;;2.70;99.90;;;;;;5077615;28;20221;-82
2021/01/02 04:12:31;;;;;;;21.70;15.75;;;2.60;99.90;;;;;;5075405;28;20203;-82
2021/01/02 04:14:58;;;;;;;20.08;17.77;;;2.60;99.90;;;;;;5077748;28;20195;-82
2021/01/02 04:17:25;;;;;;;22.98;17.17;;;2.70;99.90;;;;;;5074866;28;20203;-81
2021/01/02 04:19:52;;;;;;;21.77;17.13;;;2.40;99.60;;;;;;5088204;28;20224;-82
2021/01/02 04:22:18;;;;;;;21.58;16.30;;;2.20;99.90;;;;;;5076967;28;20195;-82
2021/01/02 04:24:44;;;;;;;26.48;16.75;;;1.90;99.90;;;;;;5085057;28;20203;-82
2021/01/02 04:27:11;;;;;;;22.27;16.58;;;2.00;99.90;;;;;;5077467;28;20282;-82
2021/01/02 04:29:38;;;;;;;20.80;15.70;;;2.20;99.90;;;;;;5093568;28;20191;-82
2021/01/02 04:32:06;;;;;;;21.55;16.13;;;2.20;99.90;;;;;;5075213;28;20245;-82
2021/01/02 04:34:34;;;;;;;20.20;15.77;;;2.30;99.90;;;;;;5084518;28;20195;-82
2021/01/02 04:37:01;;;;;;;22.10;16.42;;;2.10;99.90;;;;;;5087771;28;20218;-82
2021/01/02 04:39:28;;;;;;;25.38;17.10;;;2.30;99.90;;;;;;5075193;28;20232;-82
2021/01/02 04:41:57;;;;;;;26.23;16.63;;;2.20;99.90;;;;;;5089342;28;20197;-82
2021/01/02 04:44:25;;;;;;;22.42;17.10;;;2.10;99.90;;;;;;5087111;28;20671;-82
2021/01/02 04:46:55;;;;;;;24.58;17.38;;;2.10;99.90;;;;;;5074234;28;20219;-82
2021/01/02 04:49:22;;;;;;;22.83;17.73;;;2.20;99.90;;;;;;5084337;28;20571;-82
2021/01/02 04:51:50;;;;;;;22.67;16.50;;;2.20;99.90;;;;;;5079634;28;20686;-82
2021/01/02 04:54:20;;;;;;;24.92;17.20;;;2.30;99.90;;;;;;5095715;28;20687;-82
2021/01/02 04:56:47;;;;;;;24.75;16.70;;;2.50;99.90;;;;;;5078307;28;20203;-82
2021/01/02 04:59:17;;;;;;;25.42;18.83;;;2.70;99.90;;;;;;5074881;28;20653;-82
2021/01/02 05:01:49;;;;;;;22.88;17.80;;;2.60;99.90;;;;;;5073877;28;20669;-82
2021/01/02 05:04:17;;;;;;;23.08;18.98;;;2.50;99.90;;;;;;5074584;28;20206;-82
2021/01/02 05:06:44;;;;;;;20.70;16.83;;;2.60;99.90;;;;;;5094301;28;20218;-82
2021/01/02 05:09:12;;;;;;;21.33;17.48;;;2.70;99.90;;;;;;5078711;28;20262;-82
2021/01/02 05:11:40;;;;;;;23.00;17.50;;;2.80;99.90;;;;;;5077774;28;20206;-82
2021/01/02 05:14:08;;;;;;;21.45;17.45;;;2.90;99.90;;;;;;5073766;28;20199;-82
2021/01/02 05:16:36;;;;;;;26.35;18.27;;;3.00;99.90;;;;;;5095230;28;20194;-82
2021/01/02 05:19:06;;;;;;;24.13;18.42;;;2.60;99.50;;;;;;5094377;28;20199;-82
2021/01/02 05:21:33;;;;;;;26.88;18.58;;;2.70;99.90;;;;;;5087535;28;20195;-82
2021/01/02 05:24:07;;;;;;;23.80;17.13;;;2.80;99.90;;;;;;5086636;28;20217;-81
2021/01/02 05:26:36;;;;;;;25.55;18.92;;;2.60;99.90;;;;;;5075435;28;20219;-82
2021/01/02 05:29:17;;;;;;;27.30;18.42;;;2.70;99.90;;;;;;5092620;28;20680;-82
2021/01/02 05:31:46;;;;;;;25.48;17.70;;;2.90;99.90;;;;;;5080738;28;20203;-82
2021/01/02 05:34:14;;;;;;;28.88;20.08;;;3.00;99.90;;;;;;5082897;28;20221;-82
2021/01/02 05:36:41;;;;;;;25.52;19.00;;;3.10;99.70;;;;;;5094332;28;20202;-81
2021/01/02 05:39:09;;;;;;;24.92;18.27;;;3.10;99.40;;;;;;5093253;28;20194;-82
2021/01/02 05:41:51;;;;;;;25.65;18.55;;;3.10;99.20;;;;;;5093970;28;20218;-82
2021/01/02 05:44:18;;;;;;;27.85;20.80;;;3.10;99.20;;;;;;5089134;28;20195;-82
2021/01/02 05:46:53;;;;;;;30.70;19.73;;;3.10;99.20;;;;;;5092330;28;20639;-82
2021/01/02 05:49:34;;;;;;;28.05;19.15;;;2.90;99.00;;;;;;5092231;28;20209;-82
2021/01/02 05:52:02;;;;;;;26.77;20.33;;;3.00;99.40;;;;;;5074773;28;20203;-82
2021/01/02 05:54:30;;;;;;;35.60;20.08;;;2.70;98.90;;;;;;5080731;28;20288;-82
2021/01/02 05:57:00;;;;;;;34.08;20.20;;;2.40;99.90;;;;;;5073955;28;20246;-82
2021/01/02 05:59:27;;;;;;;30.90;19.65;;;2.60;99.90;;;;;;5084740;28;20199;-81
2021/01/02 06:01:54;;;;;;;27.05;19.27;;;2.60;99.90;;;;;;5090064;28;20214;-82
2021/01/02 06:04:20;;;;;;;30.23;19.38;;;2.60;99.90;;;;;;5091941;28;20242;-82
2021/01/02 06:07:04;;;;;;;33.42;21.77;;;2.30;99.90;;;;;;5091349;28;20690;-82
2021/01/02 06:09:32;;;;;;;27.02;20.77;;;2.50;99.90;;;;;;5082139;28;20197;-82
2021/01/02 06:12:04;;;;;;;33.95;21.33;;;2.60;99.90;;;;;;5089421;28;20195;-82
2021/01/02 06:14:34;;;;;;;31.45;20.85;;;2.80;99.90;;;;;;5081550;28;20191;-82
2021/01/02 06:17:05;;;;;;;31.33;20.00;;;2.90;99.90;;;;;;5093028;28;20564;-82
2021/01/02 06:19:32;;;;;;;37.60;21.02;;;2.90;99.90;;;;;;5081526;28;20195;-82
2021/01/02 06:21:58;;;;;;;32.03;18.55;;;2.60;99.90;;;;;;5084943;28;20238;-82
2021/01/02 06:24:25;;;;;;;32.40;20.48;;;2.30;99.90;;;;;;5082717;28;20238;-81
2021/01/02 06:26:52;;;;;;;30.35;19.75;;;2.30;99.90;;;;;;5071260;28;20642;-81
2021/01/02 06:29:19;;;;;;;31.75;19.30;;;2.40;99.90;;;;;;5090976;28;20245;-82
2021/01/02 06:31:46;;;;;;;31.27;18.20;;;2.60;99.90;;;;;;5092665;28;20202;-82
2021/01/02 06:34:13;;;;;;;32.08;18.70;;;2.60;99.90;;;;;;5077889;28;20822;-82
2021/01/02 06:36:40;;;;;;;39.05;20.13;;;2.70;99.90;;;;;;5090275;28;20236;-82
2021/01/02 06:39:20;;;;;;;29.38;18.88;;;2.70;99.90;;;;;;5078286;28;20199;-82
2021/01/02 06:41:47;;;;;;;32.42;18.75;;;2.80;99.90;;;;;;5072519;28;20531;-82
2021/01/02 06:44:39;;;;;;;34.72;19.27;;;2.60;99.90;;;;;;5074294;28;20207;-82
2021/01/02 06:47:22;;;;;;;26.58;17.52;;;2.60;99.90;;;;;;5072095;28;20273;-82
2021/01/02 06:49:51;;;;;;;28.45;15.95;;;2.50;99.90;;;;;;5078061;28;20548;-82
2021/01/02 06:52:32;;;;;;;26.20;19.23;;;2.60;99.90;;;;;;5091565;28;20210;-82
2021/01/02 06:55:21;;;;;;;28.95;20.23;;;2.50;99.90;;;;;;5088049;28;20548;-82
2021/01/02 06:57:48;;;;;;;30.38;18.52;;;2.70;99.90;;;;;;5072868;28;20199;-82
2021/01/02 07:00:25;;;;;;;27.65;17.85;;;2.60;99.90;;;;;;5075009;28;20214;-82
2021/01/02 07:02:52;;;;;;;28.23;20.55;;;2.60;99.90;;;;;;5072554;28;20559;-82
2021/01/02 07:05:44;;;;;;;26.77;18.25;;;2.80;99.90;;;;;;5078198;28;20223;-82
2021/01/02 07:08:41;;;;;;;33.60;16.77;;;2.50;99.90;;;;;;5090992;28;20774;-82
2021/01/02 07:11:26;;;;;;;29.90;18.55;;;2.60;99.90;;;;;;5079817;28;20203;-82
2021/01/02 07:14:27;;;;;;;29.63;17.48;;;2.80;99.90;;;;;;5078716;28;20194;-82
2021/01/02 07:16:57;;;;;;;25.40;15.65;;;2.90;99.90;;;;;;5092531;28;20251;-82
2021/01/02 07:19:44;;;;;;;25.23;16.10;;;2.90;99.80;;;;;;5092456;28;20251;-82
2021/01/02 07:22:26;;;;;;;27.45;15.00;;;2.90;99.60;;;;;;5090896;28;20206;-82
2021/01/02 07:25:01;;;;;;;25.30;15.68;;;2.90;99.70;;;;;;5092165;28;20202;-82
2021/01/02 07:27:30;;;;;;;18.77;13.80;;;2.70;99.20;;;;;;5071392;28;20631;-82
2021/01/02 07:30:04;;;;;;;26.92;13.90;;;2.70;99.60;;;;;;5075195;28;20200;-82
2021/01/02 07:32:32;;;;;;;24.70;15.57;;;2.70;99.70;;;;;;5091881;28;20221;-82
2021/01/02 07:35:00;;;;;;;22.02;15.25;;;2.80;99.80;;;;;;5090505;28;20191;-82
2021/01/02 07:37:28;;;;;;;25.60;16.13;;;2.70;99.70;;;;;;5088932;28;20234;-82
2021/01/02 07:39:59;;;;;;;25.45;15.30;;;2.80;99.70;;;;;;5087656;28;20222;-82
2021/01/02 07:42:28;;;;;;;30.83;16.42;;;2.80;99.60;;;;;;5071058;28;20248;-82
2021/01/02 07:44:57;;;;;;;30.83;17.08;;;2.60;99.70;;;;;;5081273;28;20194;-83
2021/01/02 07:47:24;;;;;;;28.42;17.15;;;2.60;99.90;;;;;;5089349;28;20244;-82
2021/01/02 07:49:59;;;;;;;27.63;16.40;;;2.60;99.80;;;;;;5076795;28;20635;-82
2021/01/02 07:52:25;;;;;;;24.98;15.75;;;2.50;99.90;;;;;;5081878;28;20265;-82
2021/01/02 07:54:52;;;;;;;28.40;17.00;;;2.60;99.90;;;;;;5072182;28;20245;-83
2021/01/02 07:57:24;;;;;;;26.13;14.57;;;2.80;99.90;;;;;;5090466;28;20207;-82
2021/01/02 07:59:51;;;;;;;25.55;15.50;;;2.70;99.90;;;;;;5072008;28;20209;-83
2021/01/02 08:02:21;;;;;;;25.48;15.30;;;2.80;99.80;;;;;;5069788;28;20219;-83
2021/01/02 08:04:49;;;;;;;24.08;15.98;;;2.80;99.60;;;;;;5077621;28;20206;-84
2021/01/02 08:07:16;;;;;;;27.15;16.40;;;2.90;99.50;;;;;;5077276;28;20579;-83
2021/01/02 08:09:44;;;;;;;24.15;14.98;;;2.90;99.20;;;;;;5104731;28;20194;-83
2021/01/02 08:12:12;;;;;;;25.83;15.80;;;3.00;99.10;;;;;;5091425;28;20203;-83
2021/01/02 08:14:43;;;;;;;23.45;14.48;;;2.90;99.00;;;;;;5072292;28;20192;-84
2021/01/02 08:17:11;;;;;;;20.45;15.57;;;2.90;99.20;;;;;;5090944;28;20205;-83
2021/01/02 08:19:39;;;;;;;25.40;14.43;;;3.00;99.10;;;;;;5071590;28;20223;-83
2021/01/02 08:22:08;;;;;;;26.75;15.70;;;2.90;99.20;;;;;;5078536;28;20231;-83
2021/01/02 08:24:39;;;;;;;20.35;14.00;;;2.80;99.30;;;;;;5071184;28;20203;-83
2021/01/02 08:27:06;;;;;;;29.20;17.55;;;2.80;99.40;;;;;;5084636;28;20211;-83
2021/01/02 08:29:34;;;;;;;23.05;14.07;;;2.70;99.40;;;;;;5071918;28;20223;-83
2021/01/02 08:32:07;;;;;;;23.10;15.05;;;2.80;99.70;;;;;;5072081;28;20206;-84
2021/01/02 08:34:34;;;;;;;26.73;15.73;;;2.80;99.60;;;;;;5080876;28;20199;-83
2021/01/02 08:37:14;;;;;;;22.08;16.55;;;2.80;99.30;;;;;;5070771;28;20204;-83
2021/01/02 08:39:42;;;;;;;20.38;15.30;;;2.80;99.50;;;;;;5072009;28;20298;-83
2021/01/02 08:42:09;;;;;;;21.90;15.70;;;2.90;99.50;;;;;;5080181;28;20203;-84
2021/01/02 08:44:37;;;;;;;24.23;15.95;;;2.60;99.40;;;;;;5085605;28;20671;-83
2021/01/02 08:47:08;;;;;;;24.60;15.10;;;2.70;99.90;;;;;;5089671;28;20332;-84
2021/01/02 08:49:44;;;;;;;24.42;15.38;;;2.60;99.80;;;;;;5091295;28;20195;-82
2021/01/02 08:52:32;;;;;;;24.90;15.00;;;2.70;99.90;;;;;;5077832;28;20199;-82
2021/01/02 08:55:12;;;;;;;26.60;17.90;;;2.70;99.70;;;;;;5088672;28;20203;-82
2021/01/02 08:57:46;;;;;;;21.33;14.73;;;2.30;99.60;;;;;;5085705;28;20200;-82
2021/01/02 09:00:15;;;;;;;23.40;15.70;;;2.60;99.90;;;;;;5081569;28;20253;-83
2021/01/02 09:02:44;;;;;;;24.05;16.08;;;2.70;99.90;;;;;;5094426;28;20205;-83
2021/01/02 09:05:12;;;;;;;25.63;17.10;;;2.90;99.90;;;;;;5085917;28;20199;-83
2021/01/02 09:07:41;;;;;;;30.95;17.85;;;3.00;99.80;;;;;;5093459;28;20317;-82
2021/01/02 09:10:33;;;;;;;26.45;15.93;;;3.00;99.70;;;;;;5089097;28;20195;-82
2021/01/02 09:13:08;;;;;;;30.35;16.70;;;3.00;99.40;;;;;;5090479;28;20203;-83
2021/01/02 09:15:51;;;;;;;24.63;15.35;;;3.10;99.30;;;;;;5087534;28;20191;-82
2021/01/02 09:18:36;;;;;;;24.50;15.15;;;3.00;99.00;;;;;;5074304;28;20203;-82
2021/01/02 09:21:23;;;;;;;32.35;16.88;;;2.90;99.20;;;;;;5090723;28;20190;-83
2021/01/02 09:23:49;;;;;;;24.92;15.55;;;2.90;99.30;;;;;;5114065;28;20229;-82
2021/01/02 09:26:25;;;;;;;26.98;15.93;;;3.00;99.30;;;;;;5091071;27;20192;-83
2021/01/02 09:28:52;;;;;;;23.08;16.05;;;3.20;99.60;;;;;;5082380;28;20249;-81
2021/01/02 09:31:19;;;;;;;24.02;16.45;;;3.10;99.10;;;;;;5077680;28;20215;-82
2021/01/02 09:33:46;;;;;;;23.38;16.25;;;3.00;99.20;;;;;;5074500;28;20230;-82
2021/01/02 09:36:14;;;;;;;20.95;14.38;;;2.90;99.30;;;;;;5074079;28;20199;-83
2021/01/02 09:38:41;;;;;;;21.35;14.57;;;2.90;99.60;;;;;;5077312;28;20260;-82
2021/01/02 09:41:09;;;;;;;22.65;14.60;;;2.90;99.40;;;;;;5074372;28;20219;-83
2021/01/02 09:43:35;;;;;;;22.67;14.85;;;3.10;99.60;;;;;;5077543;28;20202;-83
2021/01/02 09:46:02;;;;;;;21.88;15.13;;;3.00;99.00;;;;;;5088605;28;20647;-83
2021/01/02 09:48:29;;;;;;;24.08;16.30;;;2.90;99.30;;;;;;5090903;28;20703;-82
2021/01/02 09:50:55;;;;;;;22.35;16.10;;;2.90;99.20;;;;;;5079445;28;20202;-82
2021/01/02 09:53:22;;;;;;;28.33;16.13;;;3.00;99.30;;;;;;5079381;28;20625;-82
2021/01/02 09:55:50;;;;;;;25.65;16.73;;;3.20;99.00;;;;;;5088560;28;20648;-82
2021/01/02 09:58:18;;;;;;;24.65;16.23;;;3.30;98.80;;;;;;5085904;28;20204;-82
2021/01/02 10:00:44;;;;;;;21.85;14.20;;;3.20;98.50;;;;;;5081503;28;20210;-83
2021/01/02 10:03:11;;;;;;;24.10;15.25;;;3.40;98.50;;;;;;5076304;28;20202;-82
2021/01/02 10:05:37;;;;;;;20.80;15.68;;;3.40;98.10;;;;;;5072191;28;20207;-82
2021/01/02 10:08:05;;;;;;;21.42;15.43;;;3.30;97.90;;;;;;5070168;28;20624;-82
2021/01/02 10:10:32;;;;;;;20.30;14.95;;;3.40;98.00;;;;;;5071185;28;20207;-82
2021/01/02 10:12:58;;;;;;;24.70;15.25;;;3.30;98.00;;;;;;5069715;28;20641;-82
2021/01/02 10:15:26;;;;;;;26.90;15.95;;;3.30;98.20;;;;;;5070990;28;20212;-82
2021/01/02 10:17:53;;;;;;;20.23;15.55;;;3.40;97.80;;;;;;5072221;28;20199;-82
2021/01/02 10:20:20;;;;;;;26.15;15.63;;;3.50;97.80;;;;;;5071168;28;20199;-83
2021/01/02 10:22:46;;;;;;;23.33;15.18;;;3.40;97.50;;;;;;5072856;28;20207;-82
2021/01/02 10:25:18;;;;;;;21.52;14.80;;;3.50;97.50;;;;;;5071779;28;20210;-82
2021/01/02 10:27:44;;;;;;;24.67;15.07;;;3.60;97.10;;;;;;5070604;28;20306;-82
2021/01/02 10:30:13;;;;;;;19.85;14.68;;;3.50;97.10;;;;;;5071943;28;20214;-82
2021/01/02 10:32:41;;;;;;;25.52;16.95;;;3.40;97.40;;;;;;5072556;28;20215;-82
2021/01/02 10:35:09;;;;;;;19.58;14.27;;;3.50;97.60;;;;;;5072391;28;20641;-82
2021/01/02 10:37:36;;;;;;;22.30;14.20;;;3.40;97.10;;;;;;5072340;28;20244;-82
2021/01/02 10:40:05;;;;;;;29.35;14.80;;;3.30;97.20;;;;;;5072029;28;20203;-82
2021/01/02 10:42:32;;;;;;;23.00;15.52;;;3.10;97.40;;;;;;5072432;28;20565;-83
2021/01/02 10:45:00;;;;;;;27.60;16.40;;;3.10;98.10;;;;;;5080959;28;20185;-83
2021/01/02 10:47:28;;;;;;;28.02;14.68;;;3.20;98.00;;;;;;5092704;28;20215;-82
2021/01/02 10:49:56;;;;;;;22.67;14.95;;;3.20;97.90;;;;;;5092833;28;20214;-84
2021/01/02 10:52:24;;;;;;;19.17;14.18;;;3.30;97.80;;;;;;5092731;28;20214;-82
2021/01/02 10:54:52;;;;;;;18.17;14.38;;;3.30;98.00;;;;;;5092540;28;20203;-82
2021/01/02 10:57:20;;;;;;;21.45;14.50;;;3.00;97.40;;;;;;5091951;28;20244;-82
2021/01/02 10:59:48;;;;;;;22.30;15.30;;;3.10;97.90;;;;;;5092191;28;20239;-83
2021/01/02 11:02:16;;;;;;;26.00;16.85;;;3.10;97.90;;;;;;5091614;28;20569;-82
2021/01/02 11:04:42;;;;;;;20.98;15.45;;;3.30;97.70;;;;;;5091617;28;20569;-83
2021/01/02 11:07:10;;;;;;;23.38;16.15;;;3.30;97.30;;;;;;5091520;28;20243;-82
2021/01/02 11:09:37;;;;;;;23.17;16.00;;;3.40;97.50;;;;;;5091983;28;20206;-83
2021/01/02 11:12:05;;;;;;;22.83;15.23;;;3.70;97.60;;;;;;5091329;28;20225;-83
2021/01/02 11:14:32;;;;;;;22.05;16.23;;;3.50;97.00;;;;;;5091104;28;20652;-83
2021/01/02 11:16:58;;;;;;;26.77;17.23;;;3.80;97.40;;;;;;5091731;28;20198;-82
2021/01/02 11:19:27;;;;;;;20.58;15.52;;;3.80;96.70;;;;;;5091568;28;20245;-82
2021/01/02 11:21:55;;;;;;;22.38;15.45;;;3.80;96.40;;;;;;5091315;28;20199;-82
2021/01/02 11:24:24;;;;;;;19.63;13.98;;;3.40;96.40;;;;;;5091454;28;20713;-82
2021/01/02 11:26:53;;;;;;;22.98;15.32;;;3.30;96.70;;;;;;5090986;28;20206;-82
2021/01/02 11:29:21;;;;;;;21.67;16.00;;;3.20;97.20;;;;;;5091183;28;20672;-82
2021/01/02 11:31:48;;;;;;;19.08;15.13;;;3.40;97.10;;;;;;5091582;28;20872;-82
2021/01/02 11:34:15;;;;;;;18.75;14.77;;;3.20;97.00;;;;;;5091843;28;20198;-82
2021/01/02 11:36:42;;;;;;;21.88;16.33;;;3.10;97.30;;;;;;5091376;28;20236;-82
2021/01/02 11:39:10;;;;;;;24.48;15.40;;;3.50;97.60;;;;;;5091353;28;20197;-82
2021/01/02 11:41:39;;;;;;;22.88;17.10;;;3.70;97.30;;;;;;5091462;28;20198;-81
2021/01/02 11:44:08;;;;;;;21.70;15.65;;;3.70;96.90;;;;;;5091889;28;20210;-83
2021/01/02 11:46:36;;;;;;;19.55;14.38;;;3.90;96.60;;;;;;5092260;28;20202;-82
2021/01/02 11:49:03;;;;;;;22.25;14.30;;;3.90;96.50;;;;;;5091218;28;20221;-82
2021/01/02 11:51:30;;;;;;;20.65;14.52;;;3.90;96.40;;;;;;5091827;28;20198;-82
2021/01/02 11:53:59;;;;;;;18.58;15.10;;;4.00;96.40;;;;;;5091726;28;20264;-82
2021/01/02 11:56:27;;;;;;;19.20;13.80;;;3.90;96.10;;;;;;5091911;28;20202;-83
2021/01/02 11:58:56;;;;;;;22.60;15.60;;;4.20;95.90;;;;;;5090447;28;20203;-82
2021/01/02 12:01:32;;;;;;;21.50;16.00;;;4.00;95.80;;;;;;5090316;28;20218;-83
2021/01/02 12:04:00;;;;;;;21.80;15.70;;;4.10;95.90;;;;;;5090350;28;20596;-82
2021/01/02 12:06:28;;;;;;;19.65;15.95;;;4.30;96.80;;;;;;5090288;28;20203;-82
2021/01/02 12:08:55;;;;;;;22.38;15.93;;;4.20;95.80;;;;;;5089999;28;20230;-82
2021/01/02 12:11:29;;;;;;;20.02;14.85;;;4.00;95.40;;;;;;5091560;28;20237;-82
2021/01/02 12:13:57;;;;;;;24.42;18.17;;;4.00;96.00;;;;;;5091498;28;20202;-82
2021/01/02 12:16:30;;;;;;;19.45;15.40;;;3.90;96.00;;;;;;5091591;28;20226;-82
2021/01/02 12:18:57;;;;;;;18.52;14.75;;;3.70;95.90;;;;;;5090575;28;20234;-82
2021/01/02 12:21:26;;;;;;;21.27;14.45;;;3.60;96.50;;;;;;5090886;28;20194;-82
2021/01/02 12:23:53;;;;;;;22.42;13.25;;;3.30;96.40;;;;;;5091120;28;20252;-82
2021/01/02 12:26:20;;;;;;;21.90;14.40;;;3.50;97.10;;;;;;5095596;28;20663;-82
2021/01/02 12:28:47;;;;;;;20.85;13.38;;;3.60;96.80;;;;;;5094319;28;20230;-82
2021/01/02 12:31:20;;;;;;;18.38;14.10;;;3.70;96.50;;;;;;5094524;28;20686;-82
2021/01/02 12:33:47;;;;;;;19.23;13.65;;;3.40;96.50;;;;;;5094441;28;20221;-82
2021/01/02 12:36:16;;;;;;;20.85;13.68;;;3.60;96.80;;;;;;5094262;28;20214;-82
2021/01/02 12:38:43;;;;;;;19.25;13.18;;;3.60;96.30;;;;;;5093687;28;20242;-82
2021/01/02 12:41:14;;;;;;;21.65;13.07;;;3.60;96.40;;;;;;5094759;28;20245;-82
2021/01/02 12:43:44;;;;;;;16.88;12.00;;;3.70;96.60;;;;;;5094881;28;20213;-83
2021/01/02 12:46:16;;;;;;;20.25;14.80;;;3.80;96.10;;;;;;5093416;28;20197;-82
2021/01/02 12:48:45;;;;;;;17.00;13.18;;;3.80;95.80;;;;;;5093737;28;20231;-82
2021/01/02 12:51:12;;;;;;;25.02;13.95;;;3.70;95.80;;;;;;5094688;28;20194;-82
2021/01/02 12:53:38;;;;;;;18.35;12.70;;;3.90;96.00;;;;;;5094013;28;20226;-82
2021/01/02 12:56:06;;;;;;;19.52;14.00;;;3.90;95.70;;;;;;5094276;28;20589;-82
2021/01/02 12:58:32;;;;;;;20.17;15.00;;;3.70;95.40;;;;;;5093183;28;20281;-82